Alex, Minnesota
Current Conditions -  °F | °C
As of 3:53 AM on Thursday 23 Oct 2014 (Local Time) from KAXN Reporting Station
Moderate Fog Moderate Fog  
Wind Chill: 11°   Ceiling: 200
Heat Index: 11°   Visibility: 0.5mi
Dew Point: 11°   Wind: 9mph
Humidity: 100%   Direction: 210°SSW
Pressure: 29.95"   Gusts: NA
Location:  45.8551°N, 95.4333°W
Report Text: KAXN 230853Z AUTO 21008KT 1/2SM FG VV002 11/11 A2995 RMK AO2 SLP145 T01060106 58001
Loading
Personal Weather Stations






























Interactive Weather Map
Tropical Storm Tracking
New forecast layout! Learn more

10-Day Weather Forecast

Advertisements
Track Severe Weather on mobile